Terminal Aerodrome Forecast
Issued by NWS

Home | Current Version | Previous Version | Text Only | Print | Product List | Glossary On
Versions: 1 2 3 4 5 6 7 8 9 10 11 12 13 14 15
317
FTUS43 KLSX 211727
TAFCPS
TAF
KCPS 211727Z 2118/2218 24005KT P6SM FEW060
     FM220000 VRB04KT P6SM FEW250
     FM221500 24012G18KT P6SM SCT250=

USA.gov is the U.S. government's official web portal to all federal, state and local government web resources and services.